Terminal Aerodrome Forecast
Issued by NWS Shreveport, LA

Home | Current Version | Previous Version | Text Only | Print | Product List | Glossary On
Versions: 1 2 3 4 5 6 7 8 9 10 11 12 13 14 15 16 17
000
FTUS44 KSHV 012300 RRA
TAFLFK
TAF
KLFK 012345Z 0200/0224 12010KT P6SM VCSH FEW050 SCT090
     FM020200 13006KT P6SM FEW050
     FM020500 15006KT P6SM BKN015
     FM020700 15005KT 3SM BR OVC006
      TEMPO 0210/0213 1SM BR OVC002
     FM021500 16007KT P6SM BKN012
     FM021600 17010KT P6SM BKN035=

USA.gov is the U.S. government's official web portal to all federal, state and local government web resources and services.